createdAt,value
2019-02-28T00:01:08.244Z,12.10
2019-02-28T00:03:37.549Z,11.97
2019-02-28T00:06:11.768Z,11.00
2019-02-28T00:08:37.857Z,10.10
2019-02-28T00:11:07.796Z,12.00
2019-02-28T00:13:37.096Z,10.93
2019-02-28T00:16:06.408Z,10.60
2019-02-28T00:18:35.727Z,9.93
2019-02-28T00:21:06.934Z,10.57
2019-02-28T00:23:36.214Z,12.40
2019-02-28T00:26:11.219Z,12.07
2019-02-28T00:28:39.060Z,12.23
2019-02-28T00:31:08.364Z,12.57
2019-02-28T00:33:37.666Z,11.93
2019-02-28T00:36:06.973Z,13.17
2019-02-28T00:38:36.275Z,11.57
2019-02-28T00:41:05.596Z,12.20
2019-02-28T00:43:34.895Z,11.30
2019-02-28T00:46:04.201Z,11.77
2019-02-28T00:48:33.504Z,11.03
2019-02-28T00:51:02.812Z,10.87
2019-02-28T00:53:32.204Z,10.53
2019-02-28T00:56:01.507Z,9.37
2019-02-28T00:58:30.804Z,10.10
2019-02-28T01:01:00.108Z,10.20
2019-02-28T01:03:29.481Z,10.10
2019-02-28T01:06:00.161Z,9.33
2019-02-28T01:08:29.464Z,8.57
2019-02-28T01:10:58.759Z,8.73
2019-02-28T01:13:28.212Z,8.50
2019-02-28T01:15:57.624Z,7.00
2019-02-28T01:18:26.932Z,8.13
2019-02-28T01:20:56.230Z,8.50
2019-02-28T01:23:25.605Z,7.40
2019-02-28T01:25:55.460Z,6.50
2019-02-28T01:28:27.073Z,6.97
2019-02-28T01:30:56.252Z,8.43
2019-02-28T01:33:25.681Z,7.10
2019-02-28T01:35:55.127Z,6.43
2019-02-28T01:38:25.212Z,6.07
2019-02-28T01:40:54.609Z,7.30
2019-02-28T01:43:28.376Z,6.50
2019-02-28T01:45:55.836Z,7.87
2019-02-28T01:48:25.140Z,6.93
2019-02-28T01:50:54.441Z,7.10
2019-02-28T01:53:23.743Z,7.03
2019-02-28T01:55:54.224Z,7.87
2019-02-28T01:58:23.532Z,6.60
2019-02-28T02:00:53.652Z,7.27
2019-02-28T02:03:23.834Z,6.93
2019-02-28T02:05:53.141Z,7.40
2019-02-28T02:08:23.605Z,6.83
2019-02-28T02:10:55.989Z,6.97
2019-02-28T02:13:23.905Z,6.70
2019-02-28T02:15:53.213Z,6.70
2019-02-28T02:18:22.505Z,6.80
2019-02-28T02:20:51.822Z,6.43
2019-02-28T02:23:21.115Z,6.47
2019-02-28T02:25:50.431Z,7.73
2019-02-28T02:28:19.728Z,6.40
2019-02-28T02:30:50.962Z,6.07
2019-02-28T02:33:20.908Z,7.30
2019-02-28T02:35:50.212Z,5.93
2019-02-28T02:38:19.575Z,7.80
2019-02-28T02:40:48.869Z,7.27
2019-02-28T02:43:22.146Z,7.20
2019-02-28T02:45:49.171Z,8.17
2019-02-28T02:48:18.475Z,7.30
2019-02-28T02:50:47.897Z,6.80
2019-02-28T02:53:17.181Z,7.97
2019-02-28T02:55:46.479Z,6.93
2019-02-28T02:58:15.785Z,7.73
2019-02-28T03:00:49.621Z,6.97
2019-02-28T03:03:16.082Z,7.13
2019-02-28T03:05:45.379Z,8.00
2019-02-28T03:08:14.695Z,7.30
2019-02-28T03:10:43.993Z,7.70
2019-02-28T03:13:13.409Z,7.73
2019-02-28T03:15:42.707Z,7.77
2019-02-28T03:18:12.005Z,7.53
2019-02-28T03:20:42.430Z,7.30
2019-02-28T03:23:12.023Z,7.37
2019-02-28T03:25:41.328Z,9.00
2019-02-28T03:28:10.631Z,7.53
2019-02-28T03:30:39.920Z,8.40
2019-02-28T03:33:24.114Z,8.87
2019-02-28T03:35:43.942Z,8.13
2019-02-28T03:42:00.289Z,10.57
2019-02-28T03:44:29.581Z,11.83
2019-02-28T03:46:58.884Z,12.37
2019-02-28T03:49:29.832Z,12.87
2019-02-28T03:52:05.499Z,14.30
2019-02-28T03:54:30.272Z,12.63
2019-02-28T03:56:59.687Z,13.90
2019-02-28T03:59:28.993Z,12.33
2019-02-28T04:01:58.289Z,11.97
2019-02-28T04:04:27.764Z,12.73
2019-02-28T04:06:57.074Z,13.30
2019-02-28T04:09:26.386Z,11.53
2019-02-28T04:11:56.320Z,12.17
2019-02-28T04:14:28.502Z,12.17
2019-02-28T04:16:56.624Z,13.57
2019-02-28T04:19:25.929Z,12.63
2019-02-28T04:21:55.232Z,12.47
2019-02-28T04:24:24.553Z,12.30
2019-02-28T04:26:53.944Z,12.97
2019-02-28T04:29:30.000Z,10.73
2019-02-28T04:31:54.251Z,11.07
2019-02-28T04:34:25.187Z,12.23
2019-02-28T04:36:54.575Z,10.93
2019-02-28T04:39:23.875Z,11.60
2019-02-28T04:41:53.192Z,11.67
2019-02-28T04:44:22.497Z,11.70
2019-02-28T04:46:51.793Z,11.97
2019-02-28T04:49:22.824Z,11.30
2019-02-28T04:51:53.283Z,17.60
2019-02-28T04:54:24.638Z,14.83
2019-02-28T04:56:53.585Z,15.53
2019-02-28T04:59:22.911Z,13.90
2019-02-28T05:01:52.249Z,13.63
2019-02-28T05:04:21.680Z,13.53
2019-02-28T05:06:52.146Z,13.90
2019-02-28T05:09:21.976Z,14.03
2019-02-28T05:11:51.488Z,13.43
2019-02-28T05:14:23.685Z,14.07
2019-02-28T05:16:51.813Z,13.60
2019-02-28T05:19:21.116Z,12.47
2019-02-28T05:21:50.586Z,12.17
2019-02-28T05:24:21.420Z,12.17
2019-02-28T05:26:50.737Z,13.77
2019-02-28T05:29:20.042Z,12.93
2019-02-28T05:31:49.346Z,13.03
2019-02-28T05:34:18.649Z,13.57
2019-02-28T05:36:48.428Z,13.70
2019-02-28T05:39:17.735Z,14.17
2019-02-28T05:41:49.351Z,13.83
2019-02-28T05:44:18.060Z,14.60
2019-02-28T05:46:47.367Z,14.73
2019-02-28T05:49:17.637Z,31.23
2019-02-28T05:51:47.011Z,18.53
2019-02-28T05:54:17.240Z,17.83
2019-02-28T05:56:46.700Z,18.47
2019-02-28T05:59:16.029Z,17.87
2019-02-28T06:01:46.991Z,17.63
2019-02-28T06:04:16.477Z,18.27
2019-02-28T06:06:47.178Z,18.07
2019-02-28T06:09:16.496Z,17.77
2019-02-28T06:11:45.801Z,17.07
2019-02-28T06:14:15.106Z,19.30
2019-02-28T06:16:46.824Z,19.37
2019-02-28T06:19:15.487Z,19.67
2019-02-28T06:21:44.780Z,18.13
2019-02-28T06:24:14.444Z,18.43
2019-02-28T06:26:43.739Z,19.27
2019-02-28T06:29:13.049Z,18.23
2019-02-28T06:31:45.561Z,18.77
2019-02-28T06:34:13.424Z,18.83
2019-02-28T06:36:42.744Z,21.13
2019-02-28T06:39:26.809Z,19.37
2019-02-28T06:41:55.401Z,21.33
2019-02-28T06:44:27.006Z,23.20
2019-02-28T06:46:55.753Z,23.87
2019-02-28T06:49:25.142Z,27.97
2019-02-28T06:51:54.445Z,29.60
2019-02-28T06:54:23.752Z,25.43
2019-02-28T06:56:54.076Z,24.67
2019-02-28T06:59:24.064Z,24.63
2019-02-28T07:01:57.475Z,26.90
2019-02-28T07:04:25.879Z,26.10
2019-02-28T07:06:55.179Z,28.67
2019-02-28T07:09:24.490Z,27.63
2019-02-28T07:11:54.902Z,27.47
2019-02-28T07:14:24.816Z,26.83
2019-02-28T07:16:54.120Z,29.73
2019-02-28T07:19:26.156Z,27.37
2019-02-28T07:21:54.456Z,29.03
2019-02-28T07:24:23.765Z,27.97
2019-02-28T07:26:53.195Z,29.90
2019-02-28T07:29:22.493Z,28.30
2019-02-28T07:31:51.794Z,30.10
2019-02-28T07:34:23.827Z,27.77
2019-02-28T07:36:52.106Z,29.83
2019-02-28T07:39:21.997Z,48.63
2019-02-28T07:41:51.304Z,29.73
2019-02-28T07:44:22.197Z,31.10
2019-02-28T07:46:51.795Z,31.57
2019-02-28T07:49:21.100Z,30.63
2019-02-28T07:51:50.432Z,29.73
2019-02-28T07:54:20.498Z,29.63
2019-02-28T07:56:50.013Z,28.97
2019-02-28T07:59:19.376Z,30.37
2019-02-28T08:01:50.775Z,28.43
2019-02-28T08:04:20.141Z,29.17
2019-02-28T08:06:49.516Z,29.53
2019-02-28T08:09:21.903Z,27.27
2019-02-28T08:11:51.573Z,27.00
2019-02-28T08:14:22.208Z,29.07
2019-02-28T08:16:51.520Z,27.97
2019-02-28T08:19:22.756Z,29.50
2019-02-28T08:21:51.838Z,27.67
2019-02-28T08:24:21.203Z,28.53
2019-02-28T08:26:50.730Z,28.23
2019-02-28T08:29:21.511Z,27.70
2019-02-28T08:31:50.831Z,28.03
2019-02-28T08:34:20.682Z,29.07
2019-02-28T08:36:51.157Z,28.93
2019-02-28T08:39:20.528Z,29.17
2019-02-28T08:41:49.836Z,29.50
2019-02-28T08:44:22.836Z,29.80
2019-02-28T08:47:09.506Z,30.57
2019-02-28T08:49:44.544Z,29.27
2019-02-28T08:52:09.924Z,30.77
2019-02-28T08:54:40.300Z,33.57
2019-02-28T08:57:09.619Z,32.07
2019-02-28T08:59:38.922Z,31.80
2019-02-28T09:02:08.226Z,40.57
2019-02-28T09:04:41.310Z,31.83
2019-02-28T09:07:08.552Z,31.87
2019-02-28T09:09:38.675Z,33.20
2019-02-28T09:12:07.976Z,33.87
2019-02-28T09:14:37.291Z,34.23
2019-02-28T09:17:06.605Z,33.57
2019-02-28T09:19:36.873Z,36.90
2019-02-28T09:22:06.420Z,34.93
2019-02-28T09:24:35.724Z,35.33
2019-02-28T09:27:05.944Z,36.33
2019-02-28T09:29:36.394Z,38.70
2019-02-28T09:32:06.563Z,38.60
2019-02-28T09:34:35.891Z,38.13
2019-02-28T09:37:05.195Z,37.90
2019-02-28T09:39:35.863Z,36.27
2019-02-28T09:42:05.349Z,36.50
2019-02-28T09:44:34.653Z,37.53
2019-02-28T09:47:04.632Z,36.27
2019-02-28T09:49:33.944Z,37.83
2019-02-28T09:52:06.335Z,35.00
2019-02-28T09:54:34.263Z,37.57
2019-02-28T09:57:03.586Z,36.40
2019-02-28T09:59:37.382Z,36.37
2019-02-28T10:02:08.096Z,36.20
2019-02-28T10:04:35.852Z,36.23
2019-02-28T10:07:05.156Z,35.13
2019-02-28T10:09:34.470Z,36.23
2019-02-28T10:12:07.851Z,34.70
2019-02-28T10:14:36.639Z,37.37
2019-02-28T10:17:05.946Z,50.70
2019-02-28T10:19:44.716Z,39.53
2019-02-28T10:22:10.097Z,36.00
2019-02-28T10:24:38.227Z,38.27
2019-02-28T10:27:08.796Z,37.77
2019-02-28T10:29:38.411Z,36.67
2019-02-28T10:32:10.203Z,37.17
2019-02-28T10:34:39.509Z,40.80
2019-02-28T10:37:08.812Z,36.57
2019-02-28T10:39:40.232Z,36.60
2019-02-28T10:42:10.436Z,37.40
2019-02-28T10:44:40.089Z,36.57
2019-02-28T10:47:09.400Z,36.67
2019-02-28T10:49:38.712Z,37.17
2019-02-28T10:52:08.084Z,37.53
2019-02-28T10:54:37.397Z,36.87
2019-02-28T10:57:07.067Z,37.00
2019-02-28T10:59:36.588Z,35.50
2019-02-28T11:02:05.970Z,36.97
2019-02-28T11:04:35.276Z,42.17
2019-02-28T11:07:04.856Z,37.47
2019-02-28T11:09:34.341Z,35.90
2019-02-28T11:12:03.816Z,36.50
2019-02-28T11:14:35.514Z,35.90
2019-02-28T11:17:04.159Z,37.27
2019-02-28T11:19:33.468Z,37.30
2019-02-28T11:22:04.740Z,36.33
2019-02-28T11:24:33.790Z,36.43
2019-02-28T11:27:04.811Z,37.97
2019-02-28T11:29:35.193Z,38.23
2019-02-28T11:32:05.133Z,34.90
2019-02-28T11:34:34.545Z,40.80
2019-02-28T11:37:05.465Z,37.57
2019-02-28T11:39:36.416Z,37.73
2019-02-28T11:42:05.896Z,39.73
2019-02-28T11:44:36.564Z,37.83
2019-02-28T11:47:08.401Z,38.33
2019-02-28T11:49:36.908Z,38.03
2019-02-28T11:52:07.360Z,37.60
2019-02-28T11:54:36.667Z,37.03
2019-02-28T11:57:06.914Z,36.70
2019-02-28T11:59:36.356Z,36.13
2019-02-28T12:02:07.119Z,37.70
2019-02-28T12:04:37.432Z,37.43
2019-02-28T12:07:07.504Z,45.63
2019-02-28T12:09:36.816Z,37.60
2019-02-28T12:12:07.404Z,39.53
2019-02-28T12:14:37.150Z,39.40
2019-02-28T12:17:06.451Z,35.90
2019-02-28T12:19:35.756Z,39.10
2019-02-28T12:22:05.097Z,40.03
2019-02-28T12:24:34.395Z,39.47
2019-02-28T12:27:04.187Z,39.80
2019-02-28T12:29:33.612Z,40.83
2019-02-28T12:32:02.925Z,46.23
2019-02-28T12:34:32.232Z,40.90
2019-02-28T12:37:01.972Z,40.73
2019-02-28T12:39:33.349Z,41.77
2019-02-28T12:42:02.348Z,39.50
2019-02-28T12:44:31.685Z,39.13
2019-02-28T12:47:03.343Z,40.47
2019-02-28T12:49:33.852Z,39.77
2019-02-28T12:52:03.232Z,39.33
2019-02-28T12:54:33.403Z,37.93
2019-02-28T12:57:03.528Z,39.17
2019-02-28T12:59:34.792Z,38.23
2019-02-28T13:02:07.488Z,39.80
2019-02-28T13:04:35.859Z,38.50
2019-02-28T13:07:06.057Z,39.37
2019-02-28T13:09:35.365Z,38.00
2019-02-28T13:12:08.123Z,39.13
2019-02-28T13:14:36.771Z,37.40
2019-02-28T13:17:06.887Z,38.10
2019-02-28T13:19:36.231Z,38.60
2019-02-28T13:22:05.604Z,39.03
2019-02-28T13:24:34.921Z,39.93
2019-02-28T13:27:05.610Z,43.87
2019-02-28T13:29:35.803Z,37.10
2019-02-28T13:32:06.317Z,38.93
2019-02-28T13:34:35.619Z,37.93
2019-02-28T13:37:05.104Z,37.87
2019-02-28T13:39:34.585Z,38.00
2019-02-28T13:42:04.312Z,36.03
2019-02-28T13:44:36.422Z,36.37
2019-02-28T13:47:09.846Z,34.10
2019-02-28T13:49:38.918Z,35.43
2019-02-28T13:52:08.390Z,40.57
2019-02-28T13:54:41.528Z,31.97
2019-02-28T13:57:10.044Z,33.80
2019-02-28T13:59:39.712Z,31.67
2019-02-28T14:02:09.093Z,28.97
2019-02-28T14:04:38.428Z,30.43
2019-02-28T14:07:07.969Z,30.20
2019-02-28T14:09:37.420Z,29.17
2019-02-28T14:12:06.947Z,28.67
2019-02-28T14:14:38.906Z,27.13
2019-02-28T14:17:07.256Z,27.53
2019-02-28T14:19:36.564Z,27.57
2019-02-28T14:22:08.648Z,27.97
2019-02-28T14:24:36.906Z,28.10
2019-02-28T14:27:06.236Z,26.53
2019-02-28T14:29:35.544Z,27.30
2019-02-28T14:32:07.346Z,25.27
2019-02-28T14:34:35.848Z,27.27
2019-02-28T14:37:05.180Z,27.50
2019-02-28T14:39:34.496Z,28.07
2019-02-28T14:42:06.682Z,26.57
2019-02-28T14:44:34.804Z,27.87
2019-02-28T14:47:04.183Z,26.23
2019-02-28T14:49:34.760Z,25.00
2019-02-28T14:52:04.454Z,27.00
2019-02-28T14:54:33.869Z,26.67
2019-02-28T14:57:05.256Z,26.63
2019-02-28T14:59:34.564Z,26.47
2019-02-28T15:02:03.913Z,25.30
2019-02-28T15:04:33.227Z,24.67
2019-02-28T15:07:04.364Z,25.53
2019-02-28T15:09:33.884Z,24.67
2019-02-28T15:12:03.275Z,26.00
2019-02-28T15:14:32.593Z,36.53
2019-02-28T15:17:06.721Z,26.60
2019-02-28T15:19:33.069Z,26.17
2019-02-28T15:22:02.380Z,29.40
2019-02-28T15:24:31.688Z,29.13
2019-02-28T15:27:04.118Z,29.97
2019-02-28T15:29:33.177Z,31.13
2019-02-28T15:32:02.488Z,31.00
2019-02-28T15:34:31.800Z,34.77
2019-02-28T15:37:01.118Z,30.27
2019-02-28T15:39:30.424Z,28.33
2019-02-28T15:41:59.749Z,30.73
2019-02-28T15:44:30.095Z,31.33
2019-02-28T15:46:59.545Z,29.37
2019-02-28T15:49:28.850Z,30.33
2019-02-28T15:52:01.745Z,29.40
2019-02-28T15:54:31.317Z,31.70
2019-02-28T15:57:00.625Z,30.83
2019-02-28T15:59:29.931Z,31.60
2019-02-28T16:01:59.245Z,34.00
2019-02-28T16:04:28.543Z,31.13
2019-02-28T16:06:58.226Z,31.90
2019-02-28T16:09:27.661Z,31.90
2019-02-28T16:11:56.973Z,31.93
2019-02-28T16:14:26.278Z,32.63
2019-02-28T16:16:56.769Z,32.80
2019-02-28T16:19:28.269Z,32.57
2019-02-28T16:21:57.577Z,32.17
2019-02-28T16:24:26.887Z,31.47
2019-02-28T16:26:56.866Z,32.57
2019-02-28T16:29:27.375Z,32.63
2019-02-28T16:31:56.687Z,33.63
2019-02-28T16:34:25.996Z,30.43
2019-02-28T16:37:15.500Z,43.70
2019-02-28T16:39:44.812Z,37.23
2019-02-28T16:42:14.125Z,33.87
2019-02-28T16:44:43.577Z,33.97
2019-02-28T16:47:12.887Z,36.27
2019-02-28T16:49:44.393Z,39.73
2019-02-28T16:52:14.068Z,37.07
2019-02-28T16:54:44.412Z,38.03
2019-02-28T16:57:13.721Z,35.30
2019-02-28T16:59:43.192Z,37.57
2019-02-28T17:02:12.496Z,37.60
2019-02-28T17:04:41.808Z,38.17
2019-02-28T17:07:11.127Z,38.50
2019-02-28T17:09:40.908Z,39.57
2019-02-28T17:12:15.687Z,38.37
2019-02-28T17:14:48.077Z,39.40
2019-02-28T17:17:17.658Z,38.00
2019-02-28T17:19:46.966Z,37.57
2019-02-28T17:22:16.272Z,38.57
2019-02-28T17:24:46.137Z,40.73
2019-02-28T17:27:24.500Z,39.23
2019-02-28T17:29:57.633Z,40.27
2019-02-28T17:32:28.003Z,41.57
2019-02-28T17:34:59.006Z,40.63
2019-02-28T17:37:29.003Z,40.73
2019-02-28T17:39:58.303Z,41.90
2019-02-28T17:42:27.619Z,74.03
2019-02-28T17:45:05.695Z,33.87
2019-02-28T17:48:09.693Z,39.77
2019-02-28T17:50:57.033Z,37.07
2019-02-28T17:53:36.452Z,36.23
2019-02-28T17:56:23.921Z,33.80
2019-02-28T17:59:12.606Z,35.27
2019-02-28T18:01:53.426Z,32.47
2019-02-28T18:04:45.329Z,30.33
2019-02-28T18:07:29.959Z,28.47
2019-02-28T18:10:14.712Z,28.47
2019-02-28T18:13:02.132Z,28.43
2019-02-28T18:15:56.696Z,28.57
2019-02-28T18:19:03.688Z,29.83
2019-02-28T18:21:42.004Z,29.80
2019-02-28T18:24:21.175Z,26.87
2019-02-28T18:27:19.348Z,27.37
2019-02-28T18:30:16.105Z,28.40
2019-02-28T18:32:46.424Z,28.10
2019-02-28T18:35:15.735Z,27.33
2019-02-28T18:37:45.116Z,27.97
2019-02-28T18:40:14.501Z,28.43
2019-02-28T18:42:43.804Z,27.57
2019-02-28T18:45:15.752Z,58.43
2019-02-28T18:47:44.456Z,26.77
2019-02-28T18:50:14.991Z,27.43
2019-02-28T18:52:44.368Z,25.07
2019-02-28T18:55:15.392Z,24.10
2019-02-28T18:57:44.693Z,25.10
2019-02-28T19:00:18.888Z,25.47
2019-02-28T19:02:48.517Z,24.77
2019-02-28T19:05:17.819Z,25.40
2019-02-28T19:07:47.201Z,25.17
2019-02-28T19:10:16.504Z,23.50
2019-02-28T19:12:45.826Z,23.67
2019-02-28T19:15:15.855Z,32.43
2019-02-28T19:17:45.336Z,23.50
2019-02-28T19:20:14.640Z,23.03
2019-02-28T19:22:43.947Z,19.83
2019-02-28T19:25:14.191Z,19.73
2019-02-28T19:27:43.580Z,19.20
2019-02-28T19:30:15.006Z,18.50
2019-02-28T19:32:44.376Z,18.17
2019-02-28T19:35:13.715Z,18.33
2019-02-28T19:37:43.024Z,18.33
2019-02-28T19:40:13.674Z,18.17
2019-02-28T19:42:43.052Z,17.00
2019-02-28T19:45:15.574Z,16.50
2019-02-28T19:47:47.497Z,15.20
2019-02-28T19:50:16.806Z,16.30
2019-02-28T19:52:47.088Z,14.40
2019-02-28T19:55:16.888Z,15.30
2019-02-28T19:57:46.191Z,15.63
2019-02-28T20:00:17.233Z,14.67
2019-02-28T20:02:46.718Z,14.23
2019-02-28T20:05:16.048Z,14.80
2019-02-28T20:07:45.356Z,14.90
2019-02-28T20:10:18.852Z,16.00
2019-02-28T20:12:48.219Z,15.23
2019-02-28T20:15:18.727Z,14.07
2019-02-28T20:17:48.301Z,44.23
2019-02-28T20:20:23.692Z,16.77
2019-02-28T20:22:52.989Z,13.40
2019-02-28T20:25:22.292Z,13.63
2019-02-28T20:27:51.602Z,13.53
2019-02-28T20:30:22.539Z,12.17
2019-02-28T20:32:52.795Z,13.60
2019-02-28T20:35:26.602Z,13.97
2019-02-28T20:37:53.292Z,12.73
2019-02-28T20:40:31.022Z,14.47
2019-02-28T20:43:01.404Z,14.03
2019-02-28T20:45:32.324Z,14.67
2019-02-28T20:48:04.104Z,15.47
2019-02-28T20:50:46.189Z,14.87
2019-02-28T20:53:15.685Z,13.93
2019-02-28T20:55:45.485Z,14.83
2019-02-28T20:58:16.089Z,13.83
2019-02-28T21:00:45.757Z,14.67
2019-02-28T21:03:15.120Z,14.87
2019-02-28T21:05:45.708Z,13.90
2019-02-28T21:08:15.094Z,14.23
2019-02-28T21:10:44.387Z,13.47
2019-02-28T21:13:13.692Z,13.60
2019-02-28T21:15:42.996Z,13.97
2019-02-28T21:18:12.301Z,14.80
2019-02-28T21:20:42.447Z,13.63
2019-02-28T21:23:11.916Z,14.07
2019-02-28T21:25:41.218Z,14.43
2019-02-28T21:28:10.530Z,12.87
2019-02-28T21:30:39.861Z,13.80
2019-02-28T21:33:09.173Z,13.97
2019-02-28T21:35:38.467Z,12.40
2019-02-28T21:38:07.845Z,13.33
2019-02-28T21:40:37.158Z,12.30
2019-02-28T21:43:06.524Z,12.80
2019-02-28T21:45:36.408Z,12.77
2019-02-28T21:48:05.708Z,13.37
2019-02-28T21:50:35.089Z,14.57
2019-02-28T21:53:04.388Z,13.60
2019-02-28T21:55:33.762Z,14.17
2019-02-28T21:58:04.368Z,14.40
2019-02-28T22:00:33.676Z,14.17
2019-02-28T22:03:03.893Z,14.10
2019-02-28T22:05:33.198Z,14.10
2019-02-28T22:08:02.498Z,15.07
2019-02-28T22:10:31.828Z,13.23
2019-02-28T22:13:01.131Z,14.33
2019-02-28T22:15:30.432Z,14.87
2019-02-28T22:17:59.747Z,14.20
2019-02-28T22:20:29.044Z,14.80
2019-02-28T22:22:58.354Z,14.20
2019-02-28T22:25:27.710Z,14.53
2019-02-28T22:27:57.012Z,14.67
2019-02-28T22:30:33.812Z,14.17
2019-02-28T22:33:07.679Z,13.37
2019-02-28T22:35:55.129Z,14.33
2019-02-28T22:38:24.429Z,13.47
2019-02-28T22:40:53.854Z,14.13
2019-02-28T22:43:24.121Z,13.60
2019-02-28T22:45:53.426Z,14.13
2019-02-28T22:48:22.728Z,13.53
2019-02-28T22:50:52.033Z,12.80
2019-02-28T22:53:21.349Z,13.47
2019-02-28T22:55:50.652Z,14.20
2019-02-28T22:58:22.867Z,14.43
2019-02-28T23:01:11.903Z,15.10
2019-02-28T23:03:41.459Z,15.97
2019-02-28T23:06:10.816Z,16.30
2019-02-28T23:08:40.121Z,15.53
2019-02-28T23:11:10.219Z,15.63
2019-02-28T23:13:39.523Z,15.47
2019-02-28T23:16:08.837Z,17.27
2019-02-28T23:18:39.160Z,17.13
2019-02-28T23:21:08.482Z,16.37
2019-02-28T23:23:37.785Z,16.13
2019-02-28T23:26:09.046Z,16.57
2019-02-28T23:28:44.173Z,15.50
2019-02-28T23:31:36.239Z,16.57
2019-02-28T23:34:14.401Z,14.77
2019-02-28T23:36:44.147Z,16.07
2019-02-28T23:39:13.436Z,16.83
2019-02-28T23:41:42.749Z,14.57
2019-02-28T23:44:13.064Z,16.37
2019-02-28T23:46:42.368Z,15.73
2019-02-28T23:49:11.672Z,16.23
2019-02-28T23:51:41.984Z,17.93
2019-02-28T23:54:12.840Z,18.40
2019-02-28T23:56:42.142Z,17.70
2019-02-28T23:59:11.964Z,17.40
